createdAt,value
2022-09-16T00:01:20.121Z,13.46
2022-09-16T00:03:48.559Z,13.52
2022-09-16T00:06:29.472Z,13.54
2022-09-16T00:09:02.832Z,13.51
2022-09-16T00:11:34.823Z,13.60
2022-09-16T00:14:03.781Z,13.63
2022-09-16T00:16:32.715Z,13.64
2022-09-16T00:19:02.235Z,13.64
2022-09-16T00:21:31.781Z,13.61
2022-09-16T00:23:59.763Z,13.59
2022-09-16T00:26:27.803Z,13.60
2022-09-16T00:28:56.813Z,13.58
2022-09-16T00:31:25.521Z,13.59
2022-09-16T00:33:53.655Z,13.59
2022-09-16T00:36:21.980Z,13.61
2022-09-16T00:38:57.604Z,13.35
2022-09-16T00:41:31.174Z,13.61
2022-09-16T00:44:07.773Z,13.56
2022-09-16T00:46:46.610Z,13.53
2022-09-16T00:49:25.484Z,13.52
2022-09-16T00:52:02.052Z,13.33
2022-09-16T00:54:32.091Z,13.51
2022-09-16T00:57:01.568Z,13.54
2022-09-16T00:59:36.385Z,13.50
2022-09-16T01:02:10.787Z,13.47
2022-09-16T01:05:02.651Z,13.17
2022-09-16T01:07:47.572Z,13.30
2022-09-16T01:10:20.668Z,13.34
2022-09-16T01:13:00.005Z,13.13
2022-09-16T01:15:55.104Z,13.35
2022-09-16T01:18:45.640Z,13.07
2022-09-16T01:21:44.499Z,13.23
2022-09-16T01:24:33.414Z,13.16
2022-09-16T01:27:45.593Z,13.12
2022-09-16T01:30:16.628Z,13.05
2022-09-16T01:33:17.073Z,12.80
2022-09-16T01:36:25.416Z,12.97
2022-09-16T01:39:23.159Z,12.93
2022-09-16T01:42:27.858Z,12.66
2022-09-16T01:45:23.291Z,12.68
2022-09-16T01:48:11.532Z,12.74
2022-09-16T01:50:54.026Z,12.68
2022-09-16T01:53:31.453Z,12.27
2022-09-16T01:56:58.126Z,12.48
2022-09-16T01:59:43.703Z,12.18
2022-09-16T02:02:59.203Z,12.32
2022-09-16T02:05:48.741Z,12.34
2022-09-16T02:08:45.509Z,12.25
2022-09-16T02:11:18.175Z,12.19
2022-09-16T02:14:06.342Z,12.16
2022-09-16T02:16:45.936Z,12.09
2022-09-16T02:19:37.453Z,12.06
2022-09-16T02:22:13.505Z,12.02
2022-09-16T02:24:45.553Z,11.90
2022-09-16T02:27:21.543Z,11.75
2022-09-16T02:29:54.524Z,11.75
2022-09-16T02:32:29.303Z,12.03
2022-09-16T02:34:58.690Z,12.10
2022-09-16T02:38:03.157Z,12.15
2022-09-16T02:40:48.542Z,12.23
2022-09-16T02:43:17.239Z,12.30
2022-09-16T02:46:33.332Z,12.34
2022-09-16T02:49:23.241Z,12.36
2022-09-16T02:51:58.561Z,12.17
2022-09-16T02:54:47.477Z,12.36
2022-09-16T02:57:16.799Z,12.12
2022-09-16T02:59:45.403Z,12.11
2022-09-16T03:02:13.897Z,11.97
2022-09-16T03:04:42.129Z,12.37
2022-09-16T03:07:11.368Z,12.35
2022-09-16T03:09:43.918Z,12.12
2022-09-16T03:12:17.044Z,12.25
2022-09-16T03:14:56.937Z,12.23
2022-09-16T03:17:46.260Z,12.13
2022-09-16T03:20:51.354Z,12.11
2022-09-16T03:23:59.839Z,12.03
2022-09-16T03:26:59.597Z,11.95
2022-09-16T03:30:07.268Z,11.87
2022-09-16T03:32:44.936Z,11.84
2022-09-16T03:35:27.637Z,11.82
2022-09-16T03:37:59.793Z,11.77
2022-09-16T03:40:30.090Z,11.46
2022-09-16T03:42:58.583Z,11.48
2022-09-16T03:45:26.720Z,11.41
2022-09-16T03:47:54.671Z,11.33
2022-09-16T03:50:22.738Z,11.56
2022-09-16T03:52:50.758Z,11.57
2022-09-16T03:55:19.282Z,11.56
2022-09-16T03:57:47.170Z,11.46
2022-09-16T04:00:16.625Z,11.51
2022-09-16T04:02:44.709Z,11.51
2022-09-16T04:05:12.633Z,11.51
2022-09-16T04:07:40.556Z,11.46
2022-09-16T04:10:08.641Z,11.40
2022-09-16T04:12:36.795Z,11.41
2022-09-16T04:15:05.225Z,11.13
2022-09-16T04:17:33.449Z,11.39
2022-09-16T04:20:01.968Z,11.34
2022-09-16T04:22:31.853Z,11.34
2022-09-16T04:24:59.687Z,11.30
2022-09-16T04:27:27.827Z,11.19
2022-09-16T04:29:56.752Z,11.35
2022-09-16T04:32:24.926Z,11.14
2022-09-16T04:34:53.102Z,11.11
2022-09-16T04:37:21.162Z,11.28
2022-09-16T04:39:49.477Z,11.11
2022-09-16T04:44:45.213Z,11.32
2022-09-16T04:47:13.676Z,11.32
2022-09-16T04:49:41.612Z,11.31
2022-09-16T04:52:11.095Z,11.36
2022-09-16T04:54:38.944Z,11.43
2022-09-16T04:57:06.764Z,11.50
2022-09-16T04:59:35.055Z,11.60
2022-09-16T05:02:03.470Z,11.69
2022-09-16T05:04:31.306Z,11.63
2022-09-16T05:06:59.558Z,11.97
2022-09-16T05:09:27.568Z,12.05
2022-09-16T05:11:55.348Z,12.34
2022-09-16T05:14:23.388Z,12.56
2022-09-16T05:16:51.212Z,12.70
2022-09-16T05:19:19.032Z,12.67
2022-09-16T05:21:47.129Z,12.88
2022-09-16T05:24:17.405Z,12.96
2022-09-16T05:26:45.436Z,13.11
2022-09-16T05:29:17.189Z,13.24
2022-09-16T05:31:47.855Z,13.27
2022-09-16T05:34:22.575Z,13.28
2022-09-16T05:36:54.131Z,13.36
2022-09-16T05:39:24.502Z,13.52
2022-09-16T05:41:59.955Z,13.58
2022-09-16T05:44:29.500Z,13.67
2022-09-16T05:47:02.507Z,13.72
2022-09-16T05:49:30.578Z,13.48
2022-09-16T05:51:58.610Z,13.65
2022-09-16T05:54:29.732Z,13.58
2022-09-16T05:56:57.793Z,13.60
2022-09-16T05:59:25.741Z,13.81
2022-09-16T06:01:54.175Z,13.79
2022-09-16T06:04:22.372Z,13.44
2022-09-16T06:06:50.223Z,13.62
2022-09-16T06:09:22.535Z,13.70
2022-09-16T06:11:57.979Z,13.55
2022-09-16T06:14:26.922Z,13.48
2022-09-16T06:16:54.883Z,13.58
2022-09-16T06:19:23.057Z,13.71
2022-09-16T06:21:51.154Z,13.78
2022-09-16T06:24:20.758Z,13.75
2022-09-16T06:26:54.599Z,13.67
2022-09-16T06:29:22.681Z,13.55
2022-09-16T06:31:50.575Z,13.45
2022-09-16T06:34:18.953Z,13.49
2022-09-16T06:36:47.158Z,13.57
2022-09-16T06:39:17.344Z,13.38
2022-09-16T06:41:46.199Z,13.97
2022-09-16T06:44:14.284Z,13.79
2022-09-16T06:46:42.240Z,13.65
2022-09-16T06:49:11.388Z,13.80
2022-09-16T06:51:39.675Z,13.76
2022-09-16T06:54:09.315Z,14.07
2022-09-16T06:56:39.517Z,14.56
2022-09-16T06:59:08.747Z,14.48
2022-09-16T07:01:37.409Z,14.43
2022-09-16T07:04:11.216Z,14.20
2022-09-16T07:09:28.626Z,14.67
2022-09-16T07:11:56.986Z,14.85
2022-09-16T07:14:25.571Z,14.94
2022-09-16T07:16:53.675Z,14.87
2022-09-16T07:19:22.180Z,15.06
2022-09-16T07:21:50.099Z,14.69
2022-09-16T07:24:18.687Z,14.69
2022-09-16T07:26:46.919Z,14.64
2022-09-16T07:29:18.439Z,15.06
2022-09-16T07:31:46.326Z,15.00
2022-09-16T07:34:14.452Z,14.90
2022-09-16T07:36:48.120Z,14.72
2022-09-16T07:39:19.363Z,15.00
2022-09-16T07:41:48.885Z,14.84
2022-09-16T07:44:19.165Z,14.99
2022-09-16T07:46:48.201Z,15.23
2022-09-16T07:49:17.641Z,15.02
2022-09-16T07:51:45.682Z,15.15
2022-09-16T07:54:20.383Z,15.27
2022-09-16T07:56:48.618Z,15.73
2022-09-16T07:59:19.708Z,15.52
2022-09-16T08:01:50.173Z,15.26
2022-09-16T08:04:20.808Z,15.42
2022-09-16T08:06:49.315Z,15.61
2022-09-16T08:12:08.178Z,15.67
2022-09-16T08:14:37.157Z,15.87
2022-09-16T08:17:05.340Z,15.80
2022-09-16T08:19:33.367Z,15.61
2022-09-16T08:22:01.485Z,15.67
2022-09-16T08:24:29.509Z,15.36
2022-09-16T08:26:57.629Z,15.70
2022-09-16T08:29:26.208Z,16.10
2022-09-16T08:31:54.429Z,16.03
2022-09-16T08:34:22.601Z,15.90
2022-09-16T08:36:50.990Z,15.59
2022-09-16T08:39:18.886Z,15.44
2022-09-16T08:42:35.913Z,15.45
2022-09-16T08:45:33.329Z,15.42
2022-09-16T08:48:55.667Z,15.59
2022-09-16T08:51:24.160Z,15.64
2022-09-16T08:54:03.062Z,15.70
2022-09-16T08:56:38.569Z,15.53
2022-09-16T08:59:18.699Z,15.43
2022-09-16T09:02:28.199Z,15.35
2022-09-16T09:04:57.103Z,15.43
2022-09-16T09:08:17.312Z,15.41
2022-09-16T09:11:31.009Z,15.39
2022-09-16T09:15:08.992Z,15.48
2022-09-16T09:17:57.517Z,15.44
2022-09-16T09:20:48.530Z,15.44
2022-09-16T09:24:08.020Z,15.65
2022-09-16T09:26:51.605Z,15.58
2022-09-16T09:29:45.893Z,15.87
2022-09-16T09:33:01.410Z,15.80
2022-09-16T09:35:51.059Z,15.80
2022-09-16T09:38:55.196Z,15.84
2022-09-16T09:41:46.097Z,16.04
2022-09-16T09:44:49.097Z,16.10
2022-09-16T09:47:37.158Z,16.16
2022-09-16T09:50:43.047Z,16.22
2022-09-16T09:53:45.863Z,16.20
2022-09-16T09:56:35.553Z,15.94
2022-09-16T09:59:44.990Z,15.73
2022-09-16T10:02:22.766Z,15.72
2022-09-16T10:04:51.339Z,15.54
2022-09-16T10:07:24.376Z,15.42
2022-09-16T10:10:01.113Z,15.45
2022-09-16T10:12:36.702Z,15.01
2022-09-16T10:15:05.771Z,14.93
2022-09-16T10:17:33.968Z,15.09
2022-09-16T10:20:39.723Z,15.24
2022-09-16T10:23:11.093Z,15.39
2022-09-16T10:25:39.759Z,15.34
2022-09-16T10:28:25.150Z,15.58
2022-09-16T10:30:58.819Z,15.64
2022-09-16T10:33:31.055Z,15.68
2022-09-16T10:36:09.766Z,15.47
2022-09-16T10:38:43.964Z,15.64
2022-09-16T10:41:20.552Z,15.64
2022-09-16T10:44:02.018Z,15.81
2022-09-16T10:46:32.034Z,15.59
2022-09-16T10:49:10.024Z,15.94
2022-09-16T10:51:38.102Z,15.97
2022-09-16T10:54:06.642Z,15.64
2022-09-16T10:56:50.166Z,16.00
2022-09-16T10:59:18.683Z,15.70
2022-09-16T11:02:01.618Z,16.04
2022-09-16T11:04:56.256Z,16.28
2022-09-16T11:08:11.583Z,16.53
2022-09-16T11:11:18.484Z,16.82
2022-09-16T11:14:18.012Z,16.45
2022-09-16T11:17:04.956Z,16.28
2022-09-16T11:20:21.224Z,16.20
2022-09-16T11:23:37.041Z,16.05
2022-09-16T11:26:26.801Z,15.67
2022-09-16T11:29:31.488Z,15.90
2022-09-16T11:32:04.562Z,15.80
2022-09-16T11:34:55.756Z,15.92
2022-09-16T11:37:58.424Z,15.88
2022-09-16T11:40:32.057Z,15.97
2022-09-16T11:43:34.295Z,15.43
2022-09-16T11:46:20.688Z,14.55
2022-09-16T11:49:17.849Z,13.81
2022-09-16T11:52:20.110Z,13.88
2022-09-16T11:55:03.692Z,14.08
2022-09-16T11:57:39.125Z,14.54
2022-09-16T12:00:20.042Z,14.76
2022-09-16T12:03:12.774Z,15.54
2022-09-16T12:05:53.717Z,15.51
2022-09-16T12:08:50.194Z,15.75
2022-09-16T12:11:40.949Z,16.25
2022-09-16T12:14:29.711Z,16.70
2022-09-16T12:17:14.832Z,16.62
2022-09-16T12:20:15.871Z,16.84
2022-09-16T12:23:02.566Z,17.11
2022-09-16T12:26:02.131Z,17.23
2022-09-16T12:28:37.695Z,17.35
2022-09-16T12:31:35.532Z,17.65
2022-09-16T12:34:25.805Z,17.65
2022-09-16T12:37:23.897Z,17.17
2022-09-16T12:39:53.234Z,17.09
2022-09-16T12:42:46.937Z,17.31
2022-09-16T12:45:43.914Z,17.26
2022-09-16T12:48:54.943Z,17.23
2022-09-16T12:52:00.418Z,17.27
2022-09-16T12:55:23.333Z,17.25
2022-09-16T12:58:13.197Z,17.51
2022-09-16T13:01:04.320Z,17.37
2022-09-16T13:03:37.579Z,17.75
2022-09-16T13:06:29.975Z,17.96
2022-09-16T13:09:15.682Z,17.75
2022-09-16T13:12:31.795Z,17.97
2022-09-16T13:14:57.574Z,17.86
2022-09-16T13:17:36.299Z,18.16
2022-09-16T13:20:24.205Z,17.92
2022-09-16T13:23:19.389Z,17.74
2022-09-16T13:25:58.496Z,17.84
2022-09-16T13:28:46.793Z,18.05
2022-09-16T13:31:15.652Z,18.19
2022-09-16T13:34:17.959Z,17.92
2022-09-16T13:36:46.239Z,17.59
2022-09-16T13:39:33.817Z,17.72
2022-09-16T13:42:20.887Z,17.12
2022-09-16T13:44:49.030Z,17.12
2022-09-16T13:47:30.835Z,17.12
2022-09-16T13:50:15.641Z,17.28
2022-09-16T13:52:44.621Z,17.17
2022-09-16T13:55:25.737Z,17.67
2022-09-16T13:58:04.790Z,17.68
2022-09-16T14:00:48.114Z,17.65
2022-09-16T14:04:05.122Z,17.29
2022-09-16T14:07:32.236Z,17.07
2022-09-16T14:10:41.208Z,17.15
2022-09-16T14:13:23.510Z,16.86
2022-09-16T14:15:59.436Z,17.02
2022-09-16T14:18:32.670Z,17.01
2022-09-16T14:21:22.550Z,16.99
2022-09-16T14:23:50.921Z,16.90
2022-09-16T14:26:27.512Z,17.63
2022-09-16T14:29:05.528Z,17.54
2022-09-16T14:31:34.488Z,18.02
2022-09-16T14:34:09.226Z,17.68
2022-09-16T14:36:40.694Z,17.61
2022-09-16T14:39:08.856Z,17.31
2022-09-16T14:42:04.071Z,17.06
2022-09-16T14:45:02.124Z,16.72
2022-09-16T14:47:51.022Z,16.54
2022-09-16T14:50:33.689Z,16.20
2022-09-16T14:53:06.981Z,16.12
2022-09-16T14:55:40.216Z,16.17
2022-09-16T14:58:11.331Z,16.11
2022-09-16T15:01:01.572Z,15.95
2022-09-16T15:04:05.531Z,15.65
2022-09-16T15:06:43.386Z,15.37
2022-09-16T15:09:46.004Z,15.23
2022-09-16T15:12:49.297Z,15.15
2022-09-16T15:15:30.032Z,14.73
2022-09-16T15:18:09.461Z,14.57
2022-09-16T15:20:41.286Z,14.89
2022-09-16T15:23:25.805Z,15.10
2022-09-16T15:25:59.894Z,15.06
2022-09-16T15:28:27.987Z,15.31
2022-09-16T15:30:58.259Z,15.38
2022-09-16T15:33:40.235Z,14.97
2022-09-16T15:36:36.595Z,15.11
2022-09-16T15:39:06.524Z,14.94
2022-09-16T15:41:35.176Z,14.56
2022-09-16T15:44:09.931Z,14.58
2022-09-16T15:46:44.644Z,14.66
2022-09-16T15:49:14.936Z,14.36
2022-09-16T15:51:49.948Z,14.60
2022-09-16T15:54:33.450Z,14.51
2022-09-16T15:57:16.742Z,14.20
2022-09-16T16:00:13.268Z,14.29
2022-09-16T16:02:49.466Z,14.18
2022-09-16T16:05:28.444Z,14.06
2022-09-16T16:08:06.181Z,14.06
2022-09-16T16:10:39.363Z,13.86
2022-09-16T16:13:07.799Z,14.02
2022-09-16T16:15:40.284Z,13.65
2022-09-16T16:18:10.870Z,13.67
2022-09-16T16:20:40.483Z,13.54
2022-09-16T16:23:09.028Z,13.18
2022-09-16T16:25:37.534Z,12.99
2022-09-16T16:28:05.460Z,13.09
2022-09-16T16:30:33.448Z,12.91
2022-09-16T16:33:01.571Z,12.71
2022-09-16T16:35:29.341Z,12.61
2022-09-16T16:37:58.367Z,12.52
2022-09-16T16:40:26.588Z,12.48
2022-09-16T16:42:54.411Z,12.38
2022-09-16T16:45:22.400Z,12.29
2022-09-16T16:47:50.569Z,12.24
2022-09-16T16:50:19.865Z,12.23
2022-09-16T16:52:53.540Z,12.15
2022-09-16T16:55:23.110Z,12.14
2022-09-16T16:57:53.537Z,12.03
2022-09-16T17:00:22.835Z,11.93
2022-09-16T17:02:51.598Z,11.54
2022-09-16T17:05:20.829Z,11.91
2022-09-16T17:07:50.031Z,11.90
2022-09-16T17:10:20.012Z,11.85
2022-09-16T17:12:48.571Z,11.81
2022-09-16T17:15:18.057Z,11.79
2022-09-16T17:17:46.184Z,11.73
2022-09-16T17:20:14.323Z,11.64
2022-09-16T17:22:42.197Z,11.40
2022-09-16T17:25:11.008Z,11.58
2022-09-16T17:27:42.015Z,11.57
2022-09-16T17:30:10.670Z,11.51
2022-09-16T17:32:38.689Z,11.42
2022-09-16T17:35:07.200Z,11.33
2022-09-16T17:37:37.794Z,11.26
2022-09-16T17:40:07.082Z,11.17
2022-09-16T17:42:36.072Z,11.11
2022-09-16T17:45:06.539Z,11.13
2022-09-16T17:47:35.219Z,11.20
2022-09-16T17:50:05.463Z,11.17
2022-09-16T17:52:33.437Z,10.99
2022-09-16T17:55:01.667Z,11.23
2022-09-16T17:57:33.299Z,11.22
2022-09-16T18:00:01.893Z,11.07
2022-09-16T18:02:40.458Z,10.90
2022-09-16T18:05:09.118Z,9.94
2022-09-16T18:07:37.092Z,10.55
2022-09-16T18:10:06.021Z,10.43
2022-09-16T18:12:34.157Z,10.55
2022-09-16T18:15:02.171Z,10.77
2022-09-16T18:17:30.096Z,10.98
2022-09-16T18:19:58.093Z,11.09
2022-09-16T18:22:26.255Z,11.23
2022-09-16T18:24:54.377Z,11.42
2022-09-16T18:27:22.456Z,11.41
2022-09-16T18:29:50.479Z,11.41
2022-09-16T18:32:18.423Z,11.45
2022-09-16T18:34:46.474Z,11.44
2022-09-16T18:37:14.908Z,11.37
2022-09-16T18:39:43.598Z,11.24
2022-09-16T18:42:11.833Z,11.17
2022-09-16T18:44:39.861Z,11.15
2022-09-16T18:47:08.022Z,11.24
2022-09-16T18:49:36.121Z,11.22
2022-09-16T18:52:04.702Z,10.98
2022-09-16T18:54:33.478Z,11.15
2022-09-16T18:57:02.429Z,11.12
2022-09-16T18:59:34.396Z,11.02
2022-09-16T19:02:04.083Z,10.98
2022-09-16T19:04:38.764Z,10.83
2022-09-16T19:07:08.801Z,10.70
2022-09-16T19:09:39.978Z,10.49
2022-09-16T19:12:13.296Z,10.32
2022-09-16T19:14:41.949Z,10.42
2022-09-16T19:17:10.446Z,10.32
2022-09-16T19:19:38.700Z,9.99
2022-09-16T19:22:06.783Z,10.02
2022-09-16T19:24:35.459Z,10.22
2022-09-16T19:27:03.907Z,10.16
2022-09-16T19:29:32.826Z,10.14
2022-09-16T19:32:01.103Z,10.01
2022-09-16T19:34:29.737Z,10.05
2022-09-16T19:37:00.001Z,9.87
2022-09-16T19:39:28.176Z,9.99
2022-09-16T19:41:56.618Z,9.92
2022-09-16T19:44:24.828Z,9.78
2022-09-16T19:46:53.315Z,10.01
2022-09-16T19:49:23.160Z,10.08
2022-09-16T19:51:53.363Z,10.09
2022-09-16T19:54:24.475Z,10.10
2022-09-16T19:56:53.073Z,10.11
2022-09-16T19:59:21.316Z,9.96
2022-09-16T20:01:49.793Z,9.87
2022-09-16T20:04:20.618Z,10.07
2022-09-16T20:06:50.253Z,9.79
2022-09-16T20:09:19.958Z,9.74
2022-09-16T20:11:49.427Z,9.90
2022-09-16T20:14:21.502Z,9.89
2022-09-16T20:16:51.902Z,9.90
2022-09-16T20:19:21.514Z,9.90
2022-09-16T20:21:49.820Z,9.89
2022-09-16T20:24:26.027Z,9.89
2022-09-16T20:26:56.012Z,9.54
2022-09-16T20:29:24.849Z,9.48
2022-09-16T20:31:54.126Z,9.62
2022-09-16T20:34:24.560Z,8.90
2022-09-16T20:36:53.244Z,9.25
2022-09-16T20:39:22.293Z,9.18
2022-09-16T20:42:05.120Z,9.15
2022-09-16T20:44:33.198Z,9.20
2022-09-16T20:47:02.289Z,9.19
2022-09-16T20:49:30.700Z,9.16
2022-09-16T20:51:58.693Z,9.07
2022-09-16T20:54:26.640Z,8.85
2022-09-16T20:56:55.147Z,9.11
2022-09-16T20:59:23.787Z,9.05
2022-09-16T21:01:52.135Z,9.14
2022-09-16T21:04:21.004Z,8.94
2022-09-16T21:06:49.537Z,9.25
2022-09-16T21:09:19.650Z,9.28
2022-09-16T21:11:48.207Z,9.30
2022-09-16T21:14:17.875Z,9.31
2022-09-16T21:16:47.095Z,9.14
2022-09-16T21:19:15.931Z,9.36
2022-09-16T21:21:46.494Z,9.47
2022-09-16T21:24:14.753Z,9.25
2022-09-16T21:26:44.413Z,9.51
2022-09-16T21:29:17.697Z,9.52
2022-09-16T21:31:45.755Z,9.56
2022-09-16T21:34:17.434Z,9.61
2022-09-16T21:36:45.983Z,9.67
2022-09-16T21:39:15.766Z,9.58
2022-09-16T21:41:45.615Z,9.49
2022-09-16T21:44:14.712Z,9.36
2022-09-16T21:46:46.641Z,9.55
2022-09-16T21:49:29.138Z,9.34
2022-09-16T21:51:59.265Z,9.11
2022-09-16T21:54:28.838Z,8.80
2022-09-16T21:56:56.857Z,8.88
2022-09-16T21:59:25.111Z,9.12
2022-09-16T22:01:53.269Z,8.94
2022-09-16T22:04:25.697Z,8.97
2022-09-16T22:06:55.770Z,9.10
2022-09-16T22:09:23.924Z,9.25
2022-09-16T22:11:52.227Z,9.21
2022-09-16T22:14:20.308Z,9.10
2022-09-16T22:16:48.322Z,8.83
2022-09-16T22:19:19.314Z,8.86
2022-09-16T22:21:50.419Z,9.10
2022-09-16T22:24:22.280Z,9.05
2022-09-16T22:26:51.281Z,9.03
2022-09-16T22:29:19.550Z,9.07
2022-09-16T22:31:47.722Z,9.06
2022-09-16T22:34:16.016Z,9.08
2022-09-16T22:36:43.908Z,9.06
2022-09-16T22:39:15.742Z,8.77
2022-09-16T22:41:44.173Z,9.00
2022-09-16T22:44:13.149Z,8.90
2022-09-16T22:46:47.830Z,8.78
2022-09-16T22:49:16.923Z,8.96
2022-09-16T22:51:45.296Z,8.88
2022-09-16T22:54:14.333Z,8.86
2022-09-16T22:56:44.000Z,8.82
2022-09-16T22:59:19.447Z,8.94
2022-09-16T23:01:48.178Z,8.95
2022-09-16T23:04:17.161Z,8.68
2022-09-16T23:06:45.710Z,8.93
2022-09-16T23:09:14.841Z,8.52
2022-09-16T23:11:42.922Z,9.01
2022-09-16T23:14:26.554Z,9.04
2022-09-16T23:16:54.942Z,9.02
2022-09-16T23:19:23.256Z,8.80
2022-09-16T23:21:51.309Z,8.56
2022-09-16T23:24:21.994Z,8.65
2022-09-16T23:26:50.037Z,8.81
2022-09-16T23:29:18.669Z,8.85
2022-09-16T23:31:47.117Z,8.62
2022-09-16T23:34:19.828Z,8.81
2022-09-16T23:36:48.765Z,8.61
2022-09-16T23:39:18.007Z,8.84
2022-09-16T23:41:46.544Z,8.61
2022-09-16T23:44:15.896Z,8.64
2022-09-16T23:46:44.789Z,8.66
2022-09-16T23:49:13.384Z,8.64
2022-09-16T23:51:41.271Z,8.29
2022-09-16T23:54:09.492Z,8.52
2022-09-16T23:56:37.773Z,8.47
2022-09-16T23:59:05.641Z,8.41
